createdAt,value
2018-05-29T00:00:36.821Z,98173.97
2018-05-29T00:03:04.303Z,98176.22
2018-05-29T00:05:31.779Z,98168.16
2018-05-29T00:07:59.273Z,98170.94
2018-05-29T00:10:26.748Z,98167.77
2018-05-29T00:12:54.207Z,98172.63
2018-05-29T00:15:21.695Z,98175.89
2018-05-29T00:17:49.160Z,98176.77
2018-05-29T00:20:16.669Z,98173.37
2018-05-29T00:22:44.128Z,98168.53
2018-05-29T00:25:11.606Z,98163.97
2018-05-29T00:27:39.097Z,98170.08
2018-05-29T00:30:06.569Z,98172.40
2018-05-29T00:32:34.050Z,98175.27
2018-05-29T00:35:01.515Z,98174.00
2018-05-29T00:37:28.979Z,98163.55
2018-05-29T00:39:56.468Z,98170.66
2018-05-29T00:42:23.943Z,98170.38
2018-05-29T00:44:51.430Z,98172.16
2018-05-29T00:47:18.900Z,98171.69
2018-05-29T00:49:46.567Z,98167.41
2018-05-29T00:52:14.040Z,98168.56
2018-05-29T00:54:41.516Z,98161.52
2018-05-29T00:57:08.999Z,98160.39
2018-05-29T00:59:36.467Z,98157.80
2018-05-29T01:02:03.952Z,98153.50
2018-05-29T01:04:31.416Z,98159.06
2018-05-29T01:06:58.883Z,98159.03
2018-05-29T01:09:26.374Z,98157.52
2018-05-29T01:11:53.854Z,98155.59
2018-05-29T01:14:21.353Z,98155.82
2018-05-29T01:16:48.813Z,98158.30
2018-05-29T01:19:16.280Z,98159.00
2018-05-29T01:21:43.772Z,98162.24
2018-05-29T01:24:11.237Z,98156.59
2018-05-29T01:26:38.731Z,98156.83
2018-05-29T01:29:06.376Z,98145.95
2018-05-29T01:31:33.851Z,98148.21
2018-05-29T01:34:01.348Z,98151.66
2018-05-29T01:36:28.815Z,98146.59
2018-05-29T01:38:56.314Z,98142.30
2018-05-29T01:41:23.787Z,98142.63
2018-05-29T01:43:51.255Z,98140.89
2018-05-29T01:46:18.735Z,98141.06
2018-05-29T01:48:46.224Z,98142.83
2018-05-29T01:51:13.715Z,98136.30
2018-05-29T01:53:41.181Z,98128.41
2018-05-29T01:56:08.666Z,98133.13
2018-05-29T01:58:36.153Z,98119.37
2018-05-29T02:01:03.620Z,98114.87
2018-05-29T02:03:31.109Z,98121.41
2018-05-29T02:05:58.567Z,98114.66
2018-05-29T02:08:26.036Z,98117.53
2018-05-29T02:10:53.532Z,98115.97
2018-05-29T02:13:21.007Z,98114.59
2018-05-29T02:15:48.497Z,98121.66
2018-05-29T02:18:15.961Z,98113.87
2018-05-29T02:20:43.450Z,98115.90
2018-05-29T02:23:10.924Z,98111.34
2018-05-29T02:25:38.396Z,98103.03
2018-05-29T02:28:05.899Z,98103.64
2018-05-29T02:30:33.374Z,98101.89
2018-05-29T02:33:00.857Z,98104.11
2018-05-29T02:35:28.316Z,98104.26
2018-05-29T02:37:55.807Z,98106.02
2018-05-29T02:40:23.277Z,98104.48
2018-05-29T02:42:50.753Z,98110.14
2018-05-29T02:45:18.241Z,98113.23
2018-05-29T02:47:45.721Z,98111.24
2018-05-29T02:50:13.203Z,98117.77
2018-05-29T02:52:40.670Z,98120.39
2018-05-29T02:55:08.132Z,98111.73
2018-05-29T02:57:35.620Z,98109.99
2018-05-29T03:00:03.090Z,98114.50
2018-05-29T03:02:30.944Z,98116.95
2018-05-29T03:04:58.417Z,98107.94
2018-05-29T03:07:25.887Z,98114.02
2018-05-29T03:09:53.390Z,98105.27
2018-05-29T03:12:20.859Z,98107.20
2018-05-29T03:14:49.479Z,98110.19
2018-05-29T03:17:16.955Z,98115.01
2018-05-29T03:19:44.431Z,98112.38
2018-05-29T03:22:11.917Z,98109.34
2018-05-29T03:24:39.387Z,98103.83
2018-05-29T03:27:06.877Z,98110.19
2018-05-29T03:29:34.356Z,98110.51
2018-05-29T03:32:01.852Z,98110.44
2018-05-29T03:34:29.350Z,98118.66
2018-05-29T03:36:56.800Z,98115.55
2018-05-29T03:39:24.439Z,98118.14
2018-05-29T03:41:51.906Z,98114.37
2018-05-29T03:44:19.399Z,98114.59
2018-05-29T03:46:46.870Z,98116.70
2018-05-29T03:49:14.347Z,98119.78
2018-05-29T03:51:41.831Z,98109.60
2018-05-29T03:54:09.304Z,98112.80
2018-05-29T03:56:36.789Z,98112.66
2018-05-29T03:59:04.253Z,98108.54
2018-05-29T04:01:31.722Z,98110.17
2018-05-29T04:03:59.208Z,98111.63
2018-05-29T04:06:26.675Z,98112.05
2018-05-29T04:08:54.172Z,98107.61
2018-05-29T04:11:21.633Z,98105.63
2018-05-29T04:13:49.100Z,98107.77
2018-05-29T04:16:16.593Z,98112.84
2018-05-29T04:18:44.060Z,98110.41
2018-05-29T04:21:11.577Z,98112.16
2018-05-29T04:23:39.039Z,98111.55
2018-05-29T04:26:06.512Z,98110.09
2018-05-29T04:28:33.996Z,98110.43
2018-05-29T04:31:01.473Z,98109.22
2018-05-29T04:33:29.175Z,98110.86
2018-05-29T04:35:56.644Z,98110.63
2018-05-29T04:38:24.135Z,98107.84
2018-05-29T04:40:51.604Z,98101.17
2018-05-29T04:43:19.082Z,98098.70
2018-05-29T04:45:46.583Z,98103.23
2018-05-29T04:48:14.043Z,98112.06
2018-05-29T04:50:41.532Z,98113.21
2018-05-29T04:56:06.929Z,98112.92
2018-05-29T04:58:34.401Z,98109.13
2018-05-29T05:01:01.878Z,98105.46
2018-05-29T05:03:29.359Z,98106.59
2018-05-29T05:05:56.822Z,98108.30
2018-05-29T05:08:24.338Z,98110.20
2018-05-29T05:10:52.080Z,98108.38
2018-05-29T05:13:19.556Z,98102.65
2018-05-29T05:15:47.037Z,98106.72
2018-05-29T05:18:14.506Z,98105.10
2018-05-29T05:20:41.984Z,98106.78
2018-05-29T05:23:09.457Z,98100.83
2018-05-29T05:25:37.462Z,98110.92
2018-05-29T05:28:04.947Z,98110.11
2018-05-29T05:30:32.413Z,98110.23
2018-05-29T05:32:59.907Z,98106.86
2018-05-29T05:35:27.392Z,98111.14
2018-05-29T05:37:54.872Z,98104.89
2018-05-29T05:40:22.353Z,98105.82
2018-05-29T05:42:49.833Z,98104.76
2018-05-29T05:45:17.311Z,98102.27
2018-05-29T05:47:44.778Z,98099.48
2018-05-29T05:50:12.244Z,98105.98
2018-05-29T05:52:40.778Z,98105.16
2018-05-29T05:55:08.247Z,98107.03
2018-05-29T05:57:35.738Z,98107.21
2018-05-29T06:00:03.217Z,98099.72
2018-05-29T06:02:30.695Z,98093.30
2018-05-29T06:04:58.182Z,98094.74
2018-05-29T06:07:25.650Z,98094.73
2018-05-29T06:09:53.156Z,98096.17
2018-05-29T06:12:20.620Z,98092.78
2018-05-29T06:14:48.088Z,98098.10
2018-05-29T06:17:15.576Z,98093.77
2018-05-29T06:19:43.321Z,98096.34
2018-05-29T06:22:10.796Z,98095.31
2018-05-29T06:24:38.288Z,98096.88
2018-05-29T06:27:05.761Z,98104.23
2018-05-29T06:29:33.259Z,98102.55
2018-05-29T06:32:00.733Z,98099.88
2018-05-29T06:34:28.193Z,98100.76
2018-05-29T06:36:55.688Z,98097.94
2018-05-29T06:39:23.175Z,98108.61
2018-05-29T06:41:50.660Z,98103.45
2018-05-29T06:44:18.132Z,98098.70
2018-05-29T06:46:45.821Z,98109.97
2018-05-29T06:49:13.311Z,98102.66
2018-05-29T06:51:40.777Z,98102.36
2018-05-29T06:54:08.260Z,98097.10
2018-05-29T06:56:35.719Z,98100.52
2018-05-29T06:59:03.181Z,98097.66
2018-05-29T07:01:30.673Z,98087.52
2018-05-29T07:03:58.183Z,98092.02
2018-05-29T07:06:25.648Z,98096.97
2018-05-29T07:08:53.106Z,98092.83
2018-05-29T07:11:20.577Z,98088.48
2018-05-29T07:13:48.072Z,98079.68
2018-05-29T07:16:15.537Z,98089.42
2018-05-29T07:18:43.000Z,98082.15
2018-05-29T07:21:10.480Z,98077.92
2018-05-29T07:23:37.941Z,98082.00
2018-05-29T07:26:05.415Z,98081.70
2018-05-29T07:28:32.892Z,98081.16
2018-05-29T07:31:00.355Z,98074.64
2018-05-29T07:33:27.848Z,98072.89
2018-05-29T07:35:55.316Z,98074.95
2018-05-29T07:38:22.795Z,98069.79
2018-05-29T07:40:50.261Z,98069.10
2018-05-29T07:43:17.744Z,98065.77
2018-05-29T07:45:45.204Z,98069.69
2018-05-29T07:48:12.671Z,98067.60
2018-05-29T07:50:40.155Z,98074.61
2018-05-29T07:53:07.629Z,98063.78
2018-05-29T07:55:35.124Z,98068.27
2018-05-29T07:58:02.593Z,98056.56
2018-05-29T08:00:30.060Z,98063.56
2018-05-29T08:02:57.550Z,98062.12
2018-05-29T08:05:25.031Z,98060.53
2018-05-29T08:07:52.511Z,98063.21
2018-05-29T08:10:19.984Z,98058.77
2018-05-29T08:12:47.445Z,98060.61
2018-05-29T08:15:14.933Z,98059.15
2018-05-29T08:17:42.403Z,98065.36
2018-05-29T08:20:09.892Z,98063.11
2018-05-29T08:22:37.361Z,98059.69
2018-05-29T08:25:04.819Z,98060.77
2018-05-29T08:27:32.299Z,98057.82
2018-05-29T08:29:59.760Z,98060.19
2018-05-29T08:32:27.240Z,98063.14
2018-05-29T08:34:54.740Z,98060.64
2018-05-29T08:37:22.216Z,98057.81
2018-05-29T08:39:49.724Z,98061.50
2018-05-29T08:42:17.205Z,98060.93
2018-05-29T08:44:44.847Z,98059.50
2018-05-29T08:47:12.319Z,98061.02
2018-05-29T08:49:39.789Z,98061.17
2018-05-29T08:52:07.267Z,98056.72
2018-05-29T08:54:34.732Z,98054.52
2018-05-29T08:57:02.222Z,98053.06
2018-05-29T08:59:29.696Z,98050.63
2018-05-29T09:01:57.169Z,98051.44
2018-05-29T09:04:24.649Z,98056.57
2018-05-29T09:06:52.118Z,98052.92
2018-05-29T09:09:19.614Z,98054.20
2018-05-29T09:11:47.131Z,98048.91
2018-05-29T09:14:14.564Z,98047.65
2018-05-29T09:16:42.047Z,98043.72
2018-05-29T09:19:09.521Z,98050.80
2018-05-29T09:21:37.009Z,98048.42
2018-05-29T09:24:04.485Z,98041.06
2018-05-29T09:26:31.949Z,98031.33
2018-05-29T09:28:59.437Z,98030.39
2018-05-29T09:31:26.896Z,98026.50
2018-05-29T09:33:54.389Z,98034.64
2018-05-29T09:36:21.867Z,98035.95
2018-05-29T09:38:49.336Z,98032.51
2018-05-29T09:41:16.837Z,98030.64
2018-05-29T09:43:44.297Z,98036.10
2018-05-29T09:46:11.777Z,98031.56
2018-05-29T09:48:39.241Z,98027.92
2018-05-29T09:51:06.695Z,98022.45
2018-05-29T09:53:34.194Z,98024.93
2018-05-29T09:56:01.663Z,98024.81
2018-05-29T09:58:29.470Z,98019.64
2018-05-29T10:00:56.943Z,98022.92
2018-05-29T10:03:24.408Z,98011.06
2018-05-29T10:05:51.891Z,98012.28
2018-05-29T10:08:19.354Z,98005.50
2018-05-29T10:10:46.843Z,98009.34
2018-05-29T10:13:14.370Z,97997.55
2018-05-29T10:15:41.822Z,98005.74
2018-05-29T10:18:09.299Z,98001.72
2018-05-29T10:20:36.766Z,97996.58
2018-05-29T10:23:04.240Z,97989.64
2018-05-29T10:25:31.706Z,97993.53
2018-05-29T10:27:59.180Z,97993.69
2018-05-29T10:30:26.643Z,97989.63
2018-05-29T10:32:54.140Z,97991.93
2018-05-29T10:35:21.611Z,97979.51
2018-05-29T10:37:49.079Z,97981.98
2018-05-29T10:40:16.558Z,97970.11
2018-05-29T10:42:44.027Z,97977.05
2018-05-29T10:45:11.514Z,97983.95
2018-05-29T10:47:38.980Z,97978.66
2018-05-29T10:50:06.452Z,97975.35
2018-05-29T10:52:33.997Z,97970.81
2018-05-29T10:55:01.420Z,97975.75
2018-05-29T10:57:28.908Z,97966.42
2018-05-29T10:59:56.380Z,97968.90
2018-05-29T11:02:23.844Z,97974.59
2018-05-29T11:04:51.336Z,97954.36
2018-05-29T11:07:18.805Z,97968.92
2018-05-29T11:09:46.748Z,97954.03
2018-05-29T11:12:14.215Z,97957.31
2018-05-29T11:14:41.675Z,97950.23
2018-05-29T11:17:09.148Z,97948.73
2018-05-29T11:19:36.607Z,97947.27
2018-05-29T11:22:04.106Z,97949.73
2018-05-29T11:24:31.572Z,97932.21
2018-05-29T11:26:59.051Z,97935.36
2018-05-29T11:29:26.530Z,97931.71
2018-05-29T11:31:54.001Z,97936.21
2018-05-29T11:34:21.488Z,97932.30
2018-05-29T11:36:49.000Z,97926.06
2018-05-29T11:39:16.467Z,97918.05
2018-05-29T11:41:43.952Z,97921.38
2018-05-29T11:44:11.412Z,97917.61
2018-05-29T11:46:38.907Z,97919.77
2018-05-29T11:49:06.369Z,97897.44
2018-05-29T11:51:33.836Z,97900.05
2018-05-29T11:54:01.320Z,97895.91
2018-05-29T11:56:28.792Z,97890.92
2018-05-29T11:58:56.291Z,97887.55
2018-05-29T12:01:23.759Z,97880.23
2018-05-29T12:03:51.240Z,97891.42
2018-05-29T12:06:18.705Z,97887.20
2018-05-29T12:08:46.173Z,97878.70
2018-05-29T12:11:13.653Z,97879.55
2018-05-29T12:13:41.117Z,97875.40
2018-05-29T12:16:08.604Z,97876.09
2018-05-29T12:18:36.085Z,97877.69
2018-05-29T12:21:03.551Z,97876.73
2018-05-29T12:23:31.037Z,97869.09
2018-05-29T12:25:58.502Z,97873.27
2018-05-29T12:28:26.005Z,97865.98
2018-05-29T12:30:53.481Z,97865.88
2018-05-29T12:33:20.958Z,97864.64
2018-05-29T12:35:48.431Z,97856.81
2018-05-29T12:38:15.895Z,97860.92
2018-05-29T12:40:43.380Z,97861.28
2018-05-29T12:43:10.831Z,97869.08
2018-05-29T12:45:38.302Z,97855.31
2018-05-29T12:48:05.791Z,97855.03
2018-05-29T12:50:33.267Z,97847.60
2018-05-29T12:53:00.762Z,97847.24
2018-05-29T12:55:28.231Z,97849.66
2018-05-29T12:57:55.718Z,97840.71
2018-05-29T13:00:23.198Z,97836.98
2018-05-29T13:02:50.679Z,97836.47
2018-05-29T13:05:18.185Z,97836.55
2018-05-29T13:07:45.689Z,97841.70
2018-05-29T13:10:13.168Z,97831.16
2018-05-29T13:12:40.636Z,97833.61
2018-05-29T13:15:08.175Z,97824.74
2018-05-29T13:17:35.636Z,97828.67
2018-05-29T13:20:03.096Z,97819.02
2018-05-29T13:22:30.631Z,97818.46
2018-05-29T13:24:58.065Z,97822.02
2018-05-29T13:27:25.648Z,97821.55
2018-05-29T13:29:53.108Z,97822.39
2018-05-29T13:32:20.573Z,97819.82
2018-05-29T13:34:48.058Z,97817.46
2018-05-29T13:37:15.567Z,97815.27
2018-05-29T13:39:43.044Z,97808.31
2018-05-29T13:42:10.508Z,97807.04
2018-05-29T13:44:37.982Z,97813.36
2018-05-29T13:47:05.510Z,97798.73
2018-05-29T13:49:32.981Z,97802.20
2018-05-29T13:52:00.480Z,97796.84
2018-05-29T13:54:27.947Z,97799.75
2018-05-29T13:56:55.431Z,97795.66
2018-05-29T13:59:22.941Z,97789.39
2018-05-29T14:01:50.401Z,97793.80
2018-05-29T14:04:17.889Z,97785.50
2018-05-29T14:06:45.356Z,97785.78
2018-05-29T14:09:12.812Z,97784.53
2018-05-29T14:11:40.303Z,97780.61
2018-05-29T14:14:07.775Z,97779.94
2018-05-29T14:16:35.276Z,97774.39
2018-05-29T14:19:02.744Z,97776.84
2018-05-29T14:21:30.567Z,97774.78
2018-05-29T14:23:58.055Z,97767.37
2018-05-29T14:26:25.516Z,97769.16
2018-05-29T14:28:52.999Z,97763.98
2018-05-29T14:31:20.468Z,97754.70
2018-05-29T14:33:47.953Z,97755.23
2018-05-29T14:36:15.420Z,97751.17
2018-05-29T14:38:42.883Z,97755.32
2018-05-29T14:41:10.355Z,97748.09
2018-05-29T14:43:37.810Z,97748.84
2018-05-29T14:46:05.306Z,97739.16
2018-05-29T14:48:32.780Z,97740.67
2018-05-29T14:51:00.248Z,97750.41
2018-05-29T14:53:27.732Z,97749.97
2018-05-29T14:55:55.201Z,97747.91
2018-05-29T14:58:22.692Z,97753.59
2018-05-29T15:00:50.801Z,97759.26
2018-05-29T15:03:18.269Z,97752.30
2018-05-29T15:05:45.753Z,97768.69
2018-05-29T15:08:13.218Z,97759.87
2018-05-29T15:10:40.707Z,97761.81
2018-05-29T15:13:08.177Z,97768.26
2018-05-29T15:15:35.654Z,97757.97
2018-05-29T15:18:03.122Z,97750.77
2018-05-29T15:20:30.580Z,97750.74
2018-05-29T15:22:58.063Z,97747.92
2018-05-29T15:25:25.524Z,97753.03
2018-05-29T15:27:53.004Z,97751.48
2018-05-29T15:30:20.464Z,97750.84
2018-05-29T15:32:47.966Z,97753.88
2018-05-29T15:35:15.444Z,97760.66
2018-05-29T15:37:42.912Z,97757.28
2018-05-29T15:40:10.398Z,97760.31
2018-05-29T15:42:37.854Z,97759.47
2018-05-29T15:45:05.320Z,97762.22
2018-05-29T15:47:32.803Z,97762.77
2018-05-29T15:50:00.527Z,97750.91
2018-05-29T15:52:28.036Z,97751.98
2018-05-29T15:54:55.794Z,97745.13
2018-05-29T15:57:23.236Z,97756.79
2018-05-29T15:59:50.744Z,97763.62
2018-05-29T16:02:18.182Z,97762.34
2018-05-29T16:04:45.663Z,97768.57
2018-05-29T16:07:13.137Z,97759.27
2018-05-29T16:09:40.617Z,97757.51
2018-05-29T16:12:08.079Z,97757.63
2018-05-29T16:14:35.541Z,97759.91
2018-05-29T16:17:03.024Z,97756.31
2018-05-29T16:19:30.501Z,97765.34
2018-05-29T16:21:58.263Z,97772.80
2018-05-29T16:24:25.723Z,97766.41
2018-05-29T16:26:53.197Z,97771.92
2018-05-29T16:29:20.689Z,97770.89
2018-05-29T16:31:48.154Z,97772.17
2018-05-29T16:34:15.638Z,97777.77
2018-05-29T16:36:43.093Z,97777.81
2018-05-29T16:39:10.692Z,97779.81
2018-05-29T16:41:38.198Z,97782.14
2018-05-29T16:44:05.660Z,97779.11
2018-05-29T16:46:33.148Z,97787.89
2018-05-29T16:49:00.617Z,97795.16
2018-05-29T16:51:28.083Z,97801.27
2018-05-29T16:53:55.558Z,97800.02
2018-05-29T16:56:23.039Z,97797.91
2018-05-29T16:58:50.506Z,97802.83
2018-05-29T17:01:17.979Z,97801.23
2018-05-29T17:03:45.460Z,97805.70
2018-05-29T17:06:12.932Z,97801.82
2018-05-29T17:08:40.393Z,97799.47
2018-05-29T17:11:07.921Z,97793.23
2018-05-29T17:13:35.393Z,97800.52
2018-05-29T17:16:02.873Z,97798.28
2018-05-29T17:18:30.437Z,97794.14
2018-05-29T17:20:57.888Z,97790.24
2018-05-29T17:23:25.377Z,97791.91
2018-05-29T17:25:52.856Z,97781.44
2018-05-29T17:28:20.350Z,97779.30
2018-05-29T17:30:47.813Z,97778.59
2018-05-29T17:33:15.268Z,97785.27
2018-05-29T17:35:42.752Z,97786.17
2018-05-29T17:38:10.983Z,97781.53
2018-05-29T17:40:38.533Z,97783.43
2018-05-29T17:43:06.017Z,97780.65
2018-05-29T17:45:33.559Z,97783.19
2018-05-29T17:48:01.081Z,97781.05
2018-05-29T17:50:28.555Z,97793.28
2018-05-29T17:52:56.035Z,97788.39
2018-05-29T17:55:23.513Z,97797.96
2018-05-29T17:57:50.995Z,97791.37
2018-05-29T18:00:19.343Z,97784.73
2018-05-29T18:02:46.868Z,97791.06
2018-05-29T18:05:14.642Z,97788.33
2018-05-29T18:07:42.099Z,97793.42
2018-05-29T18:10:09.588Z,97795.72
2018-05-29T18:12:37.069Z,97794.01
2018-05-29T18:15:04.597Z,97793.06
2018-05-29T18:17:32.074Z,97794.66
2018-05-29T18:19:59.545Z,97795.64
2018-05-29T18:22:27.020Z,97795.16
2018-05-29T18:24:54.488Z,97792.59
2018-05-29T18:27:21.984Z,97787.89
2018-05-29T18:29:49.439Z,97783.16
2018-05-29T18:32:16.893Z,97796.81
2018-05-29T18:34:44.369Z,97803.86
2018-05-29T18:37:11.833Z,97803.88
2018-05-29T18:39:39.324Z,97807.86
2018-05-29T18:42:06.784Z,97807.69
2018-05-29T18:44:34.283Z,97814.41
2018-05-29T18:47:01.771Z,97818.27
2018-05-29T18:49:29.234Z,97818.78
2018-05-29T18:51:56.755Z,97820.70
2018-05-29T18:54:24.240Z,97826.36
2018-05-29T18:56:51.702Z,97825.19
2018-05-29T18:59:19.193Z,97832.52
2018-05-29T19:01:46.807Z,97843.70
2018-05-29T19:04:14.541Z,97849.81
2018-05-29T19:06:42.027Z,97854.14
2018-05-29T19:09:09.864Z,97853.22
2018-05-29T19:11:37.845Z,97851.98
2018-05-29T19:14:05.637Z,97859.33
2018-05-29T19:16:33.162Z,97860.58
2018-05-29T19:19:00.678Z,97867.17
2018-05-29T19:21:28.216Z,97869.26
2018-05-29T19:23:56.029Z,97861.30
2018-05-29T19:26:23.482Z,97858.16
2018-05-29T19:28:51.279Z,97859.94
2018-05-29T19:31:18.806Z,97860.03
2018-05-29T19:33:47.034Z,97862.09
2018-05-29T19:36:14.867Z,97872.90
2018-05-29T19:38:42.322Z,97871.77
2018-05-29T19:41:10.468Z,97869.14
2018-05-29T19:43:37.981Z,97876.08
2018-05-29T19:46:05.421Z,97877.19
2018-05-29T19:48:33.085Z,97880.60
2018-05-29T19:51:01.076Z,97883.73
2018-05-29T19:53:28.653Z,97885.62
2018-05-29T19:55:56.103Z,97887.07
2018-05-29T19:58:23.853Z,97892.52
2018-05-29T20:00:51.328Z,97894.83
2018-05-29T20:03:18.839Z,97898.02
2018-05-29T20:05:46.336Z,97895.74
2018-05-29T20:08:13.799Z,97899.77
2018-05-29T20:10:41.294Z,97898.78
2018-05-29T20:13:08.768Z,97900.09
2018-05-29T20:15:36.232Z,97904.63
2018-05-29T20:18:03.708Z,97897.78
2018-05-29T20:20:32.174Z,97903.11
2018-05-29T20:22:59.699Z,97900.72
2018-05-29T20:25:27.168Z,97900.27
2018-05-29T20:27:54.648Z,97902.41
2018-05-29T20:30:22.120Z,97890.70
2018-05-29T20:32:49.582Z,97898.42
2018-05-29T20:35:17.098Z,97902.19
2018-05-29T20:37:44.570Z,97903.55
2018-05-29T20:40:12.064Z,97909.52
2018-05-29T20:42:39.552Z,97905.41
2018-05-29T20:45:07.035Z,97903.56
2018-05-29T20:47:35.063Z,97898.70
2018-05-29T20:50:02.591Z,97902.52
2018-05-29T20:52:30.010Z,97895.14
2018-05-29T20:54:57.644Z,97895.68
2018-05-29T20:57:25.109Z,97893.23
2018-05-29T20:59:53.990Z,97893.53
2018-05-29T21:02:21.511Z,97895.86
2018-05-29T21:04:48.987Z,97900.77
2018-05-29T21:07:16.475Z,97898.45
2018-05-29T21:09:43.940Z,97891.03
2018-05-29T21:12:11.432Z,97895.23
2018-05-29T21:14:39.272Z,97890.88
2018-05-29T21:17:06.736Z,97885.98
2018-05-29T21:19:34.223Z,97887.30
2018-05-29T21:22:01.687Z,97887.21
2018-05-29T21:24:29.176Z,97879.03
2018-05-29T21:26:56.643Z,97882.77
2018-05-29T21:29:24.105Z,97879.09
2018-05-29T21:31:51.588Z,97886.08
2018-05-29T21:34:19.061Z,97877.89
2018-05-29T21:36:46.570Z,97885.09
2018-05-29T21:39:14.039Z,97879.69
2018-05-29T21:41:41.845Z,97875.72
2018-05-29T21:44:09.329Z,97870.78
2018-05-29T21:46:36.805Z,97867.89
2018-05-29T21:49:04.299Z,97864.55
2018-05-29T21:51:31.775Z,97867.87
2018-05-29T21:53:59.266Z,97865.23
2018-05-29T21:56:26.723Z,97866.19
2018-05-29T21:58:54.191Z,97860.96
2018-05-29T22:01:21.668Z,97865.53
2018-05-29T22:03:49.140Z,97872.86
2018-05-29T22:06:16.639Z,97880.70
2018-05-29T22:08:44.116Z,97871.70
2018-05-29T22:11:11.670Z,97876.42
2018-05-29T22:13:39.167Z,97876.27
2018-05-29T22:16:06.628Z,97876.48
2018-05-29T22:18:34.123Z,97878.70
2018-05-29T22:21:01.677Z,97877.08
2018-05-29T22:23:29.111Z,97876.80
2018-05-29T22:25:56.576Z,97881.98
2018-05-29T22:28:24.048Z,97886.08
2018-05-29T22:30:51.523Z,97888.17
2018-05-29T22:33:18.990Z,97889.65
2018-05-29T22:35:47.405Z,97888.48
2018-05-29T22:38:14.866Z,97882.63
2018-05-29T22:40:42.332Z,97888.00
2018-05-29T22:43:09.825Z,97883.81
2018-05-29T22:45:37.299Z,97886.86
2018-05-29T22:48:04.786Z,97889.09
2018-05-29T22:50:32.257Z,97888.48
2018-05-29T22:52:59.723Z,97882.36
2018-05-29T22:55:27.220Z,97880.91
2018-05-29T22:57:54.697Z,97882.41
2018-05-29T23:00:22.192Z,97880.02
2018-05-29T23:02:49.658Z,97883.84
2018-05-29T23:05:17.150Z,97884.63
2018-05-29T23:07:45.866Z,97885.22
2018-05-29T23:10:13.329Z,97885.72
2018-05-29T23:12:40.815Z,97883.91
2018-05-29T23:15:08.284Z,97881.45
2018-05-29T23:17:35.785Z,97881.70
2018-05-29T23:20:03.316Z,97881.80
2018-05-29T23:22:30.786Z,97881.21
2018-05-29T23:24:58.272Z,97883.09
2018-05-29T23:27:25.735Z,97885.94
2018-05-29T23:29:53.222Z,97889.43
2018-05-29T23:32:20.691Z,97887.98
2018-05-29T23:34:48.175Z,97883.06
2018-05-29T23:37:15.648Z,97883.42
2018-05-29T23:39:43.108Z,97881.09
2018-05-29T23:42:10.600Z,97880.95
2018-05-29T23:44:38.056Z,97878.41
2018-05-29T23:47:05.534Z,97881.62
2018-05-29T23:49:32.995Z,97879.27
2018-05-29T23:52:00.484Z,97881.49
2018-05-29T23:54:27.943Z,97876.88
2018-05-29T23:56:55.415Z,97879.20
2018-05-29T23:59:22.896Z,97876.70
